Pagrindinis puslapis
METAR-TAF:

METAR-TAF

Oro uostai :

Egegik, Aliaska, Jungtinės Amerikos Valstijos

platuma: 58-11-07N, ilguma: 157-23-08W, Aukštis: 28 m

Dabartinis oras

Ataskaita buvo paskelbta 1 valandą ir 11 minutes, ne 19:56 UTC
Vėjas 6 kt nuo kintamojo kryptimis
Temperatūra 11°C
Drėgmė 82%
Slėgis 982 hPa
Matomumas: 16.1 km
Mažai debesys ne aukštis 7000 ft
Išsisklaidę debesys ne aukštis 11000 ft

METAR: PAII 301956Z AUTO VRB06KT 10SM FEW070 SCT110 11/08 A2900 RMK AO2 RAE39 SLP818 P0000 T01110078

Laikas: 13:07 (21:07 UTC)


TAF: trūkstamas

Orai ataskaitas ir orų prognozės (METAR, TAF).

turimą stotys yra geltonos ir raudonos taškus žemėlapyje.

Perkelti pele per norėdami pamatyti stoties vardą.

Tada spustelėkite, norėdami matyti oro stebėjimo ir prognozės.

Norėdami pakeisti žemėlapį: spustelėkite ant žalios mygtukų su juodo kryžiaus žemyn,; žalią mygtuką su brūkšneliu, jei norite nutolinti; arba žalių rodyklių gretimoms žemėlapius.


METAR-TAF: